createdAt,value
2023-11-06T00:02:21.964Z,11.59
2023-11-06T00:04:53.942Z,11.58
2023-11-06T00:07:25.861Z,11.57
2023-11-06T00:09:58.592Z,11.57
2023-11-06T00:12:32.194Z,11.57
2023-11-06T00:15:04.044Z,11.57
2023-11-06T00:17:36.145Z,11.57
2023-11-06T00:20:11.855Z,11.59
2023-11-06T00:22:44.521Z,11.62
2023-11-06T00:25:16.885Z,11.64
2023-11-06T00:27:49.290Z,11.65
2023-11-06T00:30:21.372Z,11.68
2023-11-06T00:32:53.283Z,11.68
2023-11-06T00:35:25.228Z,11.70
2023-11-06T00:37:57.123Z,11.70
2023-11-06T00:40:29.151Z,11.71
2023-11-06T00:43:01.439Z,11.71
2023-11-06T00:45:33.353Z,11.72
2023-11-06T00:48:05.744Z,11.71
2023-11-06T00:50:37.609Z,11.70
2023-11-06T00:53:10.297Z,11.71
2023-11-06T00:55:43.336Z,11.70
2023-11-06T00:58:17.553Z,11.70
2023-11-06T01:00:49.533Z,11.69
2023-11-06T01:03:22.365Z,11.69
2023-11-06T01:05:54.286Z,11.69
2023-11-06T01:08:26.176Z,11.69
2023-11-06T01:10:58.038Z,11.70
2023-11-06T01:13:30.285Z,11.69
2023-11-06T01:16:02.860Z,11.70
2023-11-06T01:18:34.856Z,11.71
2023-11-06T01:21:07.450Z,11.71
2023-11-06T01:23:39.893Z,11.71
2023-11-06T01:26:11.799Z,11.71
2023-11-06T01:28:43.741Z,11.72
2023-11-06T01:31:16.405Z,11.72
2023-11-06T01:33:48.352Z,11.73
2023-11-06T01:36:20.518Z,11.72
2023-11-06T01:38:52.368Z,11.70
2023-11-06T01:41:24.860Z,11.68
2023-11-06T01:43:57.362Z,11.66
2023-11-06T01:46:29.747Z,11.64
2023-11-06T01:49:02.569Z,11.61
2023-11-06T01:51:37.192Z,11.57
2023-11-06T01:54:11.348Z,11.55
2023-11-06T01:56:44.720Z,11.54
2023-11-06T01:59:18.437Z,11.52
2023-11-06T02:01:51.812Z,11.50
2023-11-06T02:04:23.719Z,11.49
2023-11-06T02:06:55.643Z,11.46
2023-11-06T02:09:29.264Z,11.46
2023-11-06T02:12:02.085Z,11.44
2023-11-06T02:14:49.387Z,11.44
2023-11-06T02:17:21.461Z,11.43
2023-11-06T02:19:53.669Z,11.43
2023-11-06T02:22:26.312Z,11.43
2023-11-06T02:24:58.998Z,11.43
2023-11-06T02:27:30.808Z,11.44
2023-11-06T02:30:03.157Z,11.45
2023-11-06T02:32:35.791Z,11.46
2023-11-06T02:35:09.298Z,11.46
2023-11-06T02:37:42.099Z,11.47
2023-11-06T02:40:15.167Z,11.46
2023-11-06T02:42:47.017Z,11.47
2023-11-06T02:45:19.132Z,11.47
2023-11-06T02:47:51.618Z,11.48
2023-11-06T02:50:23.591Z,11.48
2023-11-06T02:52:56.384Z,11.49
2023-11-06T02:55:28.225Z,11.49
2023-11-06T02:58:01.945Z,11.48
2023-11-06T03:00:33.818Z,11.48
2023-11-06T03:03:05.830Z,11.48
2023-11-06T03:05:38.326Z,11.48
2023-11-06T03:08:10.389Z,11.48
2023-11-06T03:10:42.235Z,11.49
2023-11-06T03:13:14.188Z,11.49
2023-11-06T03:15:46.120Z,11.49
2023-11-06T03:18:18.032Z,11.48
2023-11-06T03:20:49.934Z,11.48
2023-11-06T03:23:21.808Z,11.48
2023-11-06T03:25:53.751Z,11.48
2023-11-06T03:28:25.558Z,11.48
2023-11-06T03:30:57.349Z,11.48
2023-11-06T03:33:29.292Z,11.47
2023-11-06T03:36:05.328Z,11.47
2023-11-06T03:38:37.137Z,11.48
2023-11-06T03:41:09.231Z,11.46
2023-11-06T03:43:41.160Z,11.44
2023-11-06T03:46:12.964Z,11.43
2023-11-06T03:48:44.816Z,11.42
2023-11-06T03:51:16.660Z,11.39
2023-11-06T03:53:48.513Z,11.37
2023-11-06T03:56:20.473Z,11.36
2023-11-06T03:58:52.462Z,11.34
2023-11-06T04:01:24.399Z,11.33
2023-11-06T04:04:01.058Z,11.31
2023-11-06T04:06:33.213Z,11.30
2023-11-06T04:09:05.714Z,11.25
2023-11-06T04:11:39.015Z,11.20
2023-11-06T04:14:11.017Z,11.11
2023-11-06T04:16:43.279Z,11.02
2023-11-06T04:19:15.095Z,10.92
2023-11-06T04:21:46.937Z,10.84
2023-11-06T04:24:18.916Z,10.75
2023-11-06T04:26:50.708Z,10.69
2023-11-06T04:29:22.558Z,10.62
2023-11-06T04:31:54.402Z,10.55
2023-11-06T04:34:26.202Z,10.49
2023-11-06T04:36:58.014Z,10.44
2023-11-06T04:39:29.805Z,10.40
2023-11-06T04:42:01.638Z,10.35
2023-11-06T04:44:33.438Z,10.31
2023-11-06T04:47:05.680Z,10.25
2023-11-06T04:49:37.627Z,10.21
2023-11-06T04:52:09.612Z,10.17
2023-11-06T04:54:44.040Z,10.14
2023-11-06T04:57:15.993Z,10.10
2023-11-06T04:59:47.871Z,10.06
2023-11-06T05:02:20.625Z,10.03
2023-11-06T05:04:52.691Z,10.00
2023-11-06T05:07:25.143Z,9.97
2023-11-06T05:09:56.946Z,9.94
2023-11-06T05:12:28.756Z,9.93
2023-11-06T05:15:01.794Z,9.90
2023-11-06T05:17:34.102Z,9.88
2023-11-06T05:20:10.684Z,9.84
2023-11-06T05:22:43.170Z,9.83
2023-11-06T05:25:15.047Z,9.81
2023-11-06T05:27:46.848Z,9.81
2023-11-06T05:30:18.794Z,9.82
2023-11-06T05:32:50.742Z,9.80
2023-11-06T05:35:22.868Z,9.80
2023-11-06T05:37:54.745Z,9.78
2023-11-06T05:40:26.620Z,9.76
2023-11-06T05:42:58.407Z,9.75
2023-11-06T05:45:30.231Z,9.73
2023-11-06T05:48:02.106Z,9.72
2023-11-06T05:50:35.244Z,9.72
2023-11-06T05:53:07.651Z,9.73
2023-11-06T05:55:40.298Z,9.74
2023-11-06T05:58:12.104Z,9.74
2023-11-06T06:00:43.914Z,9.74
2023-11-06T06:03:17.169Z,9.74
2023-11-06T06:05:49.607Z,9.74
2023-11-06T06:08:22.151Z,9.76
2023-11-06T06:10:54.147Z,9.77
2023-11-06T06:13:26.390Z,9.77
2023-11-06T06:15:58.145Z,9.80
2023-11-06T06:18:30.175Z,9.82
2023-11-06T06:21:02.075Z,9.83
2023-11-06T06:23:33.968Z,9.83
2023-11-06T06:26:06.311Z,9.85
2023-11-06T06:28:38.805Z,9.87
2023-11-06T06:31:10.617Z,9.90
2023-11-06T06:33:42.678Z,9.99
2023-11-06T06:36:15.300Z,10.09
2023-11-06T06:38:47.349Z,10.21
2023-11-06T06:41:19.454Z,10.33
2023-11-06T06:43:51.241Z,10.40
2023-11-06T06:46:23.102Z,10.45
2023-11-06T06:48:54.945Z,10.50
2023-11-06T06:51:26.777Z,10.55
2023-11-06T06:53:58.684Z,10.61
2023-11-06T06:56:32.689Z,10.65
2023-11-06T06:59:04.560Z,10.67
2023-11-06T07:01:36.379Z,10.68
2023-11-06T07:04:08.655Z,10.69
2023-11-06T07:06:40.717Z,10.71
2023-11-06T07:09:12.561Z,10.73
2023-11-06T07:11:44.675Z,10.76
2023-11-06T07:14:16.533Z,10.81
2023-11-06T07:16:49.457Z,10.84
2023-11-06T07:19:21.359Z,10.89
2023-11-06T07:21:53.214Z,10.93
2023-11-06T07:24:27.180Z,10.99
2023-11-06T07:26:59.207Z,11.03
2023-11-06T07:29:31.112Z,11.05
2023-11-06T07:32:02.958Z,11.07
2023-11-06T07:34:34.856Z,11.10
2023-11-06T07:37:06.834Z,11.14
2023-11-06T07:39:38.990Z,11.18
2023-11-06T07:42:12.348Z,11.22
2023-11-06T07:44:44.223Z,11.25
2023-11-06T07:47:16.152Z,11.28
2023-11-06T07:49:48.200Z,11.32
2023-11-06T07:52:20.259Z,11.37
2023-11-06T07:54:52.244Z,11.44
2023-11-06T07:57:24.953Z,11.52
2023-11-06T07:59:57.605Z,11.62
2023-11-06T08:02:30.164Z,11.73
2023-11-06T08:05:02.181Z,11.81
2023-11-06T08:07:34.161Z,11.95
2023-11-06T08:10:06.863Z,12.06
2023-11-06T08:12:38.795Z,12.11
2023-11-06T08:15:13.225Z,12.12
2023-11-06T08:17:45.101Z,12.11
2023-11-06T08:20:17.138Z,12.10
2023-11-06T08:22:49.024Z,12.09
2023-11-06T08:25:20.951Z,12.09
2023-11-06T08:27:53.813Z,12.10
2023-11-06T08:30:25.707Z,12.15
2023-11-06T08:32:57.607Z,12.28
2023-11-06T08:35:29.727Z,12.53
2023-11-06T08:38:03.444Z,12.95
2023-11-06T08:40:35.829Z,13.56
2023-11-06T08:43:07.774Z,13.77
2023-11-06T08:45:39.595Z,13.81
2023-11-06T08:48:11.467Z,13.80
2023-11-06T08:50:43.460Z,13.71
2023-11-06T08:53:15.297Z,13.73
2023-11-06T08:55:48.176Z,13.81
2023-11-06T08:58:20.315Z,13.98
2023-11-06T09:00:52.299Z,14.11
2023-11-06T09:03:24.854Z,14.10
2023-11-06T09:05:56.916Z,14.02
2023-11-06T09:08:28.837Z,13.92
2023-11-06T09:11:00.838Z,13.80
2023-11-06T09:13:37.094Z,13.67
2023-11-06T09:16:10.622Z,13.58
2023-11-06T09:18:42.485Z,13.50
2023-11-06T09:21:15.120Z,13.43
2023-11-06T09:23:47.264Z,13.41
2023-11-06T09:26:20.380Z,13.43
2023-11-06T09:28:53.827Z,13.45
2023-11-06T09:31:25.766Z,13.47
2023-11-06T09:33:57.934Z,13.46
2023-11-06T09:36:29.747Z,13.50
2023-11-06T09:39:01.616Z,13.52
2023-11-06T09:44:12.574Z,13.78
2023-11-06T09:46:44.659Z,13.94
2023-11-06T09:49:18.815Z,14.05
2023-11-06T09:51:54.754Z,14.13
2023-11-06T09:54:26.698Z,14.13
2023-11-06T09:56:59.028Z,14.20
2023-11-06T09:59:30.923Z,14.29
2023-11-06T10:02:06.082Z,14.25
2023-11-06T10:04:38.625Z,14.23
2023-11-06T10:07:11.013Z,14.25
2023-11-06T10:09:42.975Z,14.37
2023-11-06T10:12:19.400Z,14.92
2023-11-06T10:14:51.976Z,15.68
2023-11-06T10:17:26.418Z,15.90
2023-11-06T10:20:10.264Z,15.76
2023-11-06T10:22:56.397Z,15.63
2023-11-06T10:25:33.797Z,15.70
2023-11-06T10:28:19.788Z,15.85
2023-11-06T10:30:52.938Z,16.63
2023-11-06T10:33:25.549Z,18.66
2023-11-06T10:35:58.569Z,21.09
2023-11-06T10:38:32.344Z,21.17
2023-11-06T10:41:25.490Z,19.73
2023-11-06T10:44:01.227Z,18.59
2023-11-06T10:46:35.870Z,18.07
2023-11-06T10:49:12.856Z,17.69
2023-11-06T10:51:45.617Z,17.22
2023-11-06T10:54:23.118Z,16.97
2023-11-06T10:56:58.538Z,16.97
2023-11-06T10:59:33.686Z,17.19
2023-11-06T11:02:07.262Z,17.41
2023-11-06T11:04:41.244Z,17.64
2023-11-06T11:07:13.277Z,17.66
2023-11-06T11:09:45.660Z,17.47
2023-11-06T11:12:17.856Z,17.26
2023-11-06T11:14:49.680Z,17.07
2023-11-06T11:17:21.541Z,17.15
2023-11-06T11:20:05.308Z,17.27
2023-11-06T11:23:09.000Z,17.77
2023-11-06T11:26:01.079Z,17.94
2023-11-06T11:28:58.317Z,18.08
2023-11-06T11:31:41.684Z,17.64
2023-11-06T11:34:29.199Z,17.28
2023-11-06T11:37:01.947Z,16.87
2023-11-06T11:39:33.740Z,17.23
2023-11-06T11:42:26.835Z,18.67
2023-11-06T11:45:08.993Z,19.18
2023-11-06T11:47:57.160Z,19.18
2023-11-06T11:50:45.055Z,19.38
2023-11-06T11:53:35.597Z,19.37
2023-11-06T11:56:45.340Z,20.83
2023-11-06T11:59:17.852Z,22.99
2023-11-06T12:01:49.814Z,24.06
2023-11-06T12:04:25.572Z,25.20
2023-11-06T12:07:07.555Z,26.23
2023-11-06T12:09:50.217Z,27.53
2023-11-06T12:12:24.707Z,28.45
2023-11-06T12:14:58.007Z,28.63
2023-11-06T12:17:32.105Z,28.79
2023-11-06T12:20:10.202Z,29.15
2023-11-06T12:22:51.730Z,29.56
2023-11-06T12:25:34.298Z,29.95
2023-11-06T12:28:11.701Z,29.85
2023-11-06T12:30:44.967Z,29.78
2023-11-06T12:33:18.446Z,29.94
2023-11-06T12:35:52.500Z,29.96
2023-11-06T12:38:37.660Z,28.21
2023-11-06T12:41:09.932Z,26.34
2023-11-06T12:43:43.737Z,25.03
2023-11-06T12:46:16.317Z,23.84
2023-11-06T12:48:52.425Z,22.80
2023-11-06T12:51:23.489Z,21.75
2023-11-06T12:53:55.294Z,21.02
2023-11-06T12:56:28.931Z,20.25
2023-11-06T12:59:01.284Z,19.50
2023-11-06T13:01:35.344Z,18.85
2023-11-06T13:04:08.540Z,18.26
2023-11-06T13:06:41.826Z,17.72
2023-11-06T13:09:15.228Z,17.22
2023-11-06T13:11:47.294Z,16.86
2023-11-06T13:14:19.467Z,16.59
2023-11-06T13:16:51.550Z,16.35
2023-11-06T13:19:29.745Z,16.15
2023-11-06T13:22:01.981Z,15.90
2023-11-06T13:24:34.906Z,15.71
2023-11-06T13:27:06.764Z,15.52
2023-11-06T13:29:39.989Z,15.41
2023-11-06T13:32:11.948Z,15.34
2023-11-06T13:34:43.813Z,15.24
2023-11-06T13:37:15.811Z,15.13
2023-11-06T13:39:50.611Z,15.02
2023-11-06T13:42:22.468Z,14.93
2023-11-06T13:44:54.334Z,14.89
2023-11-06T13:47:26.134Z,14.87
2023-11-06T13:49:57.999Z,14.81
2023-11-06T13:52:43.147Z,14.75
2023-11-06T13:55:16.527Z,14.72
2023-11-06T13:57:48.337Z,14.67
2023-11-06T14:00:33.713Z,14.64
2023-11-06T14:03:06.754Z,14.63
2023-11-06T14:05:45.827Z,14.62
2023-11-06T14:08:20.465Z,14.58
2023-11-06T14:10:52.880Z,14.57
2023-11-06T14:13:25.198Z,14.54
2023-11-06T14:15:57.828Z,14.48
2023-11-06T14:18:30.092Z,14.43
2023-11-06T14:21:01.968Z,14.35
2023-11-06T14:23:34.165Z,14.28
2023-11-06T14:26:08.636Z,14.22
2023-11-06T14:28:40.507Z,14.14
2023-11-06T14:31:12.314Z,14.07
2023-11-06T14:33:44.629Z,13.99
2023-11-06T14:36:16.545Z,13.91
2023-11-06T14:38:48.330Z,13.87
2023-11-06T14:41:20.206Z,13.83
2023-11-06T14:43:54.369Z,13.80
2023-11-06T14:46:26.604Z,13.77
2023-11-06T14:49:05.206Z,13.72
2023-11-06T14:51:38.182Z,13.67
2023-11-06T14:54:10.520Z,13.62
2023-11-06T14:56:46.244Z,13.59
2023-11-06T14:59:18.768Z,13.56
2023-11-06T15:01:51.226Z,13.53
2023-11-06T15:04:24.934Z,13.49
2023-11-06T15:06:57.970Z,13.42
2023-11-06T15:09:29.859Z,13.33
2023-11-06T15:12:02.341Z,13.23
2023-11-06T15:14:34.636Z,13.15
2023-11-06T15:19:47.390Z,13.03
2023-11-06T15:22:20.897Z,13.01
2023-11-06T15:24:52.647Z,12.98
2023-11-06T15:27:24.379Z,12.95
2023-11-06T15:29:56.389Z,12.93
2023-11-06T15:32:28.630Z,12.89
2023-11-06T15:35:00.496Z,12.85
2023-11-06T15:37:32.292Z,12.82
2023-11-06T15:40:05.697Z,12.80
2023-11-06T15:42:37.571Z,12.76
2023-11-06T15:45:11.631Z,12.71
2023-11-06T15:47:43.468Z,12.65
2023-11-06T15:50:15.692Z,12.59
2023-11-06T15:52:47.687Z,12.53
2023-11-06T15:55:19.655Z,12.48
2023-11-06T15:57:51.389Z,12.44
2023-11-06T16:00:23.731Z,12.39
2023-11-06T16:02:55.578Z,12.34
2023-11-06T16:05:29.108Z,12.27
2023-11-06T16:08:02.049Z,12.21
2023-11-06T16:10:35.134Z,12.16
2023-11-06T16:13:07.114Z,12.10
2023-11-06T16:15:39.542Z,12.07
2023-11-06T16:18:11.444Z,12.04
2023-11-06T16:20:43.897Z,12.02
2023-11-06T16:23:15.747Z,12.00
2023-11-06T16:25:47.562Z,11.95
2023-11-06T16:28:19.315Z,11.92
2023-11-06T16:30:51.129Z,11.88
2023-11-06T16:33:23.007Z,11.85
2023-11-06T16:35:54.935Z,11.82
2023-11-06T16:38:26.791Z,11.80
2023-11-06T16:40:58.831Z,11.76
2023-11-06T16:43:31.059Z,11.73
2023-11-06T16:46:02.826Z,11.69
2023-11-06T16:48:34.707Z,11.65
2023-11-06T16:51:07.167Z,11.61
2023-11-06T16:53:40.091Z,11.57
2023-11-06T16:56:17.064Z,11.52
2023-11-06T16:58:49.593Z,11.50
2023-11-06T17:01:24.028Z,11.48
2023-11-06T17:03:56.084Z,11.44
2023-11-06T17:06:29.300Z,11.42
2023-11-06T17:09:02.519Z,11.39
2023-11-06T17:11:34.407Z,11.36
2023-11-06T17:14:06.335Z,11.34
2023-11-06T17:16:38.742Z,11.32
2023-11-06T17:19:10.980Z,11.29
2023-11-06T17:21:43.095Z,11.26
2023-11-06T17:24:15.021Z,11.25
2023-11-06T17:26:47.107Z,11.25
2023-11-06T17:29:19.205Z,11.23
2023-11-06T17:31:50.991Z,11.21
2023-11-06T17:34:23.739Z,11.20
2023-11-06T17:36:55.806Z,11.18
2023-11-06T17:39:27.661Z,11.14
2023-11-06T17:41:59.471Z,11.12
2023-11-06T17:44:31.319Z,11.10
2023-11-06T17:47:03.425Z,11.08
2023-11-06T17:49:35.255Z,11.07
2023-11-06T17:52:08.079Z,11.04
2023-11-06T17:54:39.877Z,11.03
2023-11-06T17:57:12.677Z,11.00
2023-11-06T17:59:44.744Z,10.97
2023-11-06T18:02:17.195Z,10.96
2023-11-06T18:04:49.096Z,10.93
2023-11-06T18:07:21.263Z,10.91
2023-11-06T18:09:53.064Z,10.90
2023-11-06T18:12:24.870Z,10.86
2023-11-06T18:14:56.646Z,10.83
2023-11-06T18:17:28.567Z,10.81
2023-11-06T18:20:03.609Z,10.78
2023-11-06T18:22:35.600Z,10.74
2023-11-06T18:25:09.770Z,10.70
2023-11-06T18:27:42.099Z,10.67
2023-11-06T18:30:15.447Z,10.63
2023-11-06T18:32:47.363Z,10.60
2023-11-06T18:35:20.442Z,10.56
2023-11-06T18:37:52.489Z,10.53
2023-11-06T18:40:25.966Z,10.50
2023-11-06T18:42:57.782Z,10.48
2023-11-06T18:45:29.863Z,10.45
2023-11-06T18:48:01.868Z,10.41
2023-11-06T18:50:34.052Z,10.37
2023-11-06T18:53:10.219Z,10.32
2023-11-06T18:55:42.337Z,10.27
2023-11-06T18:58:14.674Z,10.22
2023-11-06T19:00:46.461Z,10.18
2023-11-06T19:03:18.397Z,10.11
2023-11-06T19:05:51.826Z,10.07
2023-11-06T19:08:25.401Z,10.02
2023-11-06T19:10:57.626Z,9.94
2023-11-06T19:13:29.460Z,9.89
2023-11-06T19:16:01.255Z,9.86
2023-11-06T19:18:33.553Z,9.82
2023-11-06T19:21:05.660Z,9.79
2023-11-06T19:23:37.834Z,9.76
2023-11-06T19:26:09.950Z,9.72
2023-11-06T19:28:42.533Z,9.69
2023-11-06T19:31:14.757Z,9.66
2023-11-06T19:33:48.537Z,9.63
2023-11-06T19:36:20.450Z,9.59
2023-11-06T19:38:52.336Z,9.55
2023-11-06T19:41:24.204Z,9.49
2023-11-06T19:43:56.058Z,9.45
2023-11-06T19:46:27.972Z,9.41
2023-11-06T19:48:59.896Z,9.35
2023-11-06T19:51:32.833Z,9.28
2023-11-06T19:54:04.760Z,9.22
2023-11-06T19:56:38.908Z,9.17
2023-11-06T19:59:27.970Z,9.09
2023-11-06T20:02:02.566Z,9.03
2023-11-06T20:04:34.422Z,8.97
2023-11-06T20:07:06.542Z,8.92
2023-11-06T20:09:39.101Z,8.87
2023-11-06T20:12:11.495Z,8.83
2023-11-06T20:14:43.343Z,8.77
2023-11-06T20:17:15.196Z,8.73
2023-11-06T20:19:47.017Z,8.70
2023-11-06T20:22:18.784Z,8.67
2023-11-06T20:24:50.572Z,8.63
2023-11-06T20:27:22.868Z,8.60
2023-11-06T20:29:54.785Z,8.57
2023-11-06T20:32:26.731Z,8.54
2023-11-06T20:34:58.958Z,8.51
2023-11-06T20:37:31.927Z,8.49
2023-11-06T20:40:04.008Z,8.46
2023-11-06T20:42:36.586Z,8.43
2023-11-06T20:45:11.068Z,8.39
2023-11-06T20:47:42.969Z,8.35
2023-11-06T20:50:14.818Z,8.32
2023-11-06T20:52:47.083Z,8.30
2023-11-06T20:55:18.983Z,8.29
2023-11-06T20:57:51.486Z,8.28
2023-11-06T21:00:24.168Z,8.28
2023-11-06T21:02:56.609Z,8.27
2023-11-06T21:05:28.580Z,8.26
2023-11-06T21:08:00.762Z,8.24
2023-11-06T21:10:32.619Z,8.21
2023-11-06T21:13:04.465Z,8.19
2023-11-06T21:15:36.386Z,8.18
2023-11-06T21:18:08.593Z,8.15
2023-11-06T21:20:40.413Z,8.10
2023-11-06T21:23:12.234Z,8.07
2023-11-06T21:25:44.208Z,8.06
2023-11-06T21:28:16.149Z,8.06
2023-11-06T21:30:47.982Z,8.06
2023-11-06T21:33:19.900Z,8.05
2023-11-06T21:35:52.064Z,8.03
2023-11-06T21:38:24.244Z,8.02
2023-11-06T21:40:56.029Z,8.02
2023-11-06T21:43:27.812Z,8.02
2023-11-06T21:46:02.708Z,8.01
2023-11-06T21:48:35.509Z,8.00
2023-11-06T21:51:10.790Z,7.99
2023-11-06T21:53:42.637Z,7.98
2023-11-06T21:56:14.389Z,7.95
2023-11-06T21:58:47.631Z,7.92
2023-11-06T22:01:23.757Z,7.90
2023-11-06T22:03:55.603Z,7.85
2023-11-06T22:06:27.971Z,7.81
2023-11-06T22:09:01.227Z,7.78
2023-11-06T22:11:33.094Z,7.73
2023-11-06T22:14:06.844Z,7.70
2023-11-06T22:16:38.635Z,7.66
2023-11-06T22:19:10.630Z,7.60
2023-11-06T22:21:43.486Z,7.58
2023-11-06T22:24:15.357Z,7.56
2023-11-06T22:26:48.067Z,7.55
2023-11-06T22:29:20.037Z,7.55
2023-11-06T22:31:51.867Z,7.55
2023-11-06T22:34:23.779Z,7.55
2023-11-06T22:36:55.647Z,7.54
2023-11-06T22:39:27.512Z,7.53
2023-11-06T22:42:00.103Z,7.52
2023-11-06T22:44:31.954Z,7.50
2023-11-06T22:47:04.324Z,7.48
2023-11-06T22:49:36.118Z,7.46
2023-11-06T22:52:09.284Z,7.45
2023-11-06T22:54:42.759Z,7.43
2023-11-06T22:57:14.592Z,7.42
2023-11-06T22:59:46.624Z,7.41
2023-11-06T23:02:19.600Z,7.40
2023-11-06T23:04:51.505Z,7.42
2023-11-06T23:07:24.983Z,7.43
2023-11-06T23:09:56.850Z,7.40
2023-11-06T23:12:28.621Z,7.38
2023-11-06T23:15:01.000Z,7.35
2023-11-06T23:17:33.617Z,7.30
2023-11-06T23:20:05.968Z,7.26
2023-11-06T23:22:37.812Z,7.22
2023-11-06T23:25:13.002Z,7.18
2023-11-06T23:27:46.225Z,7.14
2023-11-06T23:30:18.343Z,7.09
2023-11-06T23:32:50.632Z,7.05
2023-11-06T23:35:22.595Z,7.01
2023-11-06T23:37:54.358Z,6.99
2023-11-06T23:40:27.788Z,6.98
2023-11-06T23:43:00.530Z,6.97
2023-11-06T23:45:32.375Z,6.99
2023-11-06T23:48:04.712Z,7.01
2023-11-06T23:50:36.651Z,7.03
2023-11-06T23:53:08.554Z,7.05
2023-11-06T23:55:40.344Z,7.07
2023-11-06T23:58:12.166Z,7.06
